sensor_id;sensor_type;location;lat;lon;timestamp;pressure;altitude;pressure_sealevel;temperature;humidity
30636;BME280;17400;52.392;9.750;2023-04-15T00:02:18;100274.00;;;9.48;100.00
30636;BME280;17400;52.392;9.750;2023-04-15T00:04:48;100267.34;;;9.50;100.00
30636;BME280;17400;52.392;9.750;2023-04-15T00:07:16;100274.00;;;9.48;100.00
30636;BME280;17400;52.392;9.750;2023-04-15T00:09:43;100271.09;;;9.49;100.00
30636;BME280;17400;52.392;9.750;2023-04-15T00:12:11;100279.41;;;9.48;100.00
30636;BME280;17400;52.392;9.750;2023-04-15T00:14:39;100276.91;;;9.46;100.00
30636;BME280;17400;52.392;9.750;2023-04-15T00:17:07;100279.38;;;9.41;100.00
30636;BME280;17400;52.392;9.750;2023-04-15T00:19:34;100265.22;;;9.39;100.00
30636;BME280;17400;52.392;9.750;2023-04-15T00:22:03;100266.88;;;9.40;100.00
30636;BME280;17400;52.392;9.750;2023-04-15T00:24:31;100265.00;;;9.34;100.00
30636;BME280;17400;52.392;9.750;2023-04-15T00:26:59;100260.63;;;9.33;100.00
30636;BME280;17400;52.392;9.750;2023-04-15T00:29:27;100258.53;;;9.35;100.00
30636;BME280;17400;52.392;9.750;2023-04-15T00:31:55;100256.06;;;9.33;100.00
30636;BME280;17400;52.392;9.750;2023-04-15T00:34:23;100252.91;;;9.30;100.00
30636;BME280;17400;52.392;9.750;2023-04-15T00:36:51;100249.34;;;9.23;100.00
30636;BME280;17400;52.392;9.750;2023-04-15T00:39:21;100245.63;;;9.24;100.00
30636;BME280;17400;52.392;9.750;2023-04-15T00:41:49;100247.44;;;9.16;100.00
30636;BME280;17400;52.392;9.750;2023-04-15T00:44:17;100250.59;;;9.20;100.00
30636;BME280;17400;52.392;9.750;2023-04-15T00:46:46;100243.91;;;9.16;100.00
30636;BME280;17400;52.392;9.750;2023-04-15T00:49:14;100250.13;;;9.16;100.00
30636;BME280;17400;52.392;9.750;2023-04-15T00:51:44;100245.19;;;9.20;100.00
30636;BME280;17400;52.392;9.750;2023-04-15T00:54:12;100244.16;;;9.21;100.00
30636;BME280;17400;52.392;9.750;2023-04-15T00:56:41;100244.97;;;9.22;100.00
30636;BME280;17400;52.392;9.750;2023-04-15T00:59:12;100235.19;;;9.21;100.00
30636;BME280;17400;52.392;9.750;2023-04-15T01:01:41;100228.56;;;9.23;100.00
30636;BME280;17400;52.392;9.750;2023-04-15T01:04:10;100235.44;;;9.26;100.00
30636;BME280;17400;52.392;9.750;2023-04-15T01:06:38;100234.81;;;9.24;100.00
30636;BME280;17400;52.392;9.750;2023-04-15T01:09:06;100242.03;;;9.16;100.00
30636;BME280;17400;52.392;9.750;2023-04-15T01:11:34;100235.97;;;9.08;100.00
30636;BME280;17400;52.392;9.750;2023-04-15T01:14:03;100245.53;;;9.04;100.00
30636;BME280;17400;52.392;9.750;2023-04-15T01:16:31;100242.16;;;9.02;100.00
30636;BME280;17400;52.392;9.750;2023-04-15T01:18:59;100241.16;;;9.03;100.00
30636;BME280;17400;52.392;9.750;2023-04-15T01:21:27;100237.13;;;8.92;100.00
30636;BME280;17400;52.392;9.750;2023-04-15T01:23:55;100239.44;;;8.95;100.00
30636;BME280;17400;52.392;9.750;2023-04-15T01:26:25;100237.56;;;8.95;100.00
30636;BME280;17400;52.392;9.750;2023-04-15T01:28:53;100229.66;;;8.94;100.00
30636;BME280;17400;52.392;9.750;2023-04-15T01:31:21;100231.34;;;8.95;100.00
30636;BME280;17400;52.392;9.750;2023-04-15T01:33:49;100235.47;;;8.91;100.00
30636;BME280;17400;52.392;9.750;2023-04-15T01:36:17;100233.78;;;8.90;100.00
30636;BME280;17400;52.392;9.750;2023-04-15T01:38:46;100225.69;;;8.90;100.00
30636;BME280;17400;52.392;9.750;2023-04-15T01:41:13;100231.75;;;8.92;100.00
30636;BME280;17400;52.392;9.750;2023-04-15T01:43:43;100230.91;;;8.98;100.00
30636;BME280;17400;52.392;9.750;2023-04-15T01:46:11;100226.34;;;8.92;100.00
30636;BME280;17400;52.392;9.750;2023-04-15T01:48:38;100226.13;;;8.93;100.00
30636;BME280;17400;52.392;9.750;2023-04-15T01:51:06;100216.38;;;8.92;100.00
30636;BME280;17400;52.392;9.750;2023-04-15T01:53:34;100226.97;;;8.94;100.00
30636;BME280;17400;52.392;9.750;2023-04-15T01:56:03;100220.09;;;8.91;100.00
30636;BME280;17400;52.392;9.750;2023-04-15T01:58:31;100210.34;;;8.97;100.00
30636;BME280;17400;52.392;9.750;2023-04-15T02:01:00;100224.66;;;8.91;100.00
30636;BME280;17400;52.392;9.750;2023-04-15T02:03:28;100222.16;;;8.89;100.00
30636;BME280;17400;52.392;9.750;2023-04-15T02:05:56;100224.00;;;8.89;100.00
30636;BME280;17400;52.392;9.750;2023-04-15T02:08:24;100223.19;;;8.88;100.00
30636;BME280;17400;52.392;9.750;2023-04-15T02:10:52;100219.25;;;8.91;100.00
30636;BME280;17400;52.392;9.750;2023-04-15T02:13:20;100217.44;;;8.98;100.00
30636;BME280;17400;52.392;9.750;2023-04-15T02:15:49;100210.59;;;9.02;100.00
30636;BME280;17400;52.392;9.750;2023-04-15T02:18:20;100217.44;;;8.98;100.00
30636;BME280;17400;52.392;9.750;2023-04-15T02:20:50;100211.00;;;8.99;100.00
30636;BME280;17400;52.392;9.750;2023-04-15T02:23:17;100206.03;;;9.03;100.00
30636;BME280;17400;52.392;9.750;2023-04-15T02:25:45;100198.16;;;9.01;100.00
30636;BME280;17400;52.392;9.750;2023-04-15T02:28:19;100199.56;;;8.97;100.00
30636;BME280;17400;52.392;9.750;2023-04-15T02:30:48;100205.59;;;8.99;100.00
30636;BME280;17400;52.392;9.750;2023-04-15T02:33:19;100199.75;;;8.95;100.00
30636;BME280;17400;52.392;9.750;2023-04-15T02:35:47;100201.22;;;8.98;100.00
30636;BME280;17400;52.392;9.750;2023-04-15T02:38:15;100195.25;;;9.03;100.00
30636;BME280;17400;52.392;9.750;2023-04-15T02:40:43;100196.28;;;9.02;100.00
30636;BME280;17400;52.392;9.750;2023-04-15T02:43:11;100197.75;;;9.04;100.00
30636;BME280;17400;52.392;9.750;2023-04-15T02:45:41;100202.91;;;8.99;100.00
30636;BME280;17400;52.392;9.750;2023-04-15T02:48:09;100207.28;;;9.00;100.00
30636;BME280;17400;52.392;9.750;2023-04-15T02:50:39;100207.47;;;8.98;100.00
30636;BME280;17400;52.392;9.750;2023-04-15T02:53:07;100211.44;;;9.03;100.00
30636;BME280;17400;52.392;9.750;2023-04-15T02:55:34;100220.53;;;8.95;100.00
30636;BME280;17400;52.392;9.750;2023-04-15T02:58:02;100212.63;;;8.93;100.00
30636;BME280;17400;52.392;9.750;2023-04-15T03:00:30;100215.91;;;8.89;100.00
30636;BME280;17400;52.392;9.750;2023-04-15T03:03:01;100211.78;;;8.93;100.00
30636;BME280;17400;52.392;9.750;2023-04-15T03:05:29;100211.78;;;8.93;100.00
30636;BME280;17400;52.392;9.750;2023-04-15T03:07:58;100213.00;;;8.90;100.00
30636;BME280;17400;52.392;9.750;2023-04-15T03:10:26;100220.75;;;8.93;100.00
30636;BME280;17400;52.392;9.750;2023-04-15T03:12:54;100226.38;;;8.98;100.00
30636;BME280;17400;52.392;9.750;2023-04-15T03:15:22;100219.72;;;8.94;100.00
30636;BME280;17400;52.392;9.750;2023-04-15T03:17:50;100218.28;;;8.98;100.00
30636;BME280;17400;52.392;9.750;2023-04-15T03:20:18;100223.47;;;9.00;100.00
30636;BME280;17400;52.392;9.750;2023-04-15T03:22:45;100218.25;;;8.92;100.00
30636;BME280;17400;52.392;9.750;2023-04-15T03:25:14;100224.00;;;8.89;100.00
30636;BME280;17400;52.392;9.750;2023-04-15T03:27:42;100216.38;;;8.92;100.00
30636;BME280;17400;52.392;9.750;2023-04-15T03:30:10;100224.25;;;8.94;100.00
30636;BME280;17400;52.392;9.750;2023-04-15T03:32:38;100213.88;;;8.91;100.00
30636;BME280;17400;52.392;9.750;2023-04-15T03:35:07;100209.94;;;8.93;100.00
30636;BME280;17400;52.392;9.750;2023-04-15T03:37:35;100216.94;;;8.88;100.00
30636;BME280;17400;52.392;9.750;2023-04-15T03:40:03;100209.25;;;8.84;100.00
30636;BME280;17400;52.392;9.750;2023-04-15T03:42:32;100207.34;;;8.78;100.00
30636;BME280;17400;52.392;9.750;2023-04-15T03:45:00;100209.22;;;8.78;100.00
30636;BME280;17400;52.392;9.750;2023-04-15T03:47:27;100206.31;;;8.79;100.00
30636;BME280;17400;52.392;9.750;2023-04-15T03:49:55;100216.31;;;8.86;100.00
30636;BME280;17400;52.392;9.750;2023-04-15T03:52:23;100213.00;;;8.90;100.00
30636;BME280;17400;52.392;9.750;2023-04-15T03:54:51;100215.69;;;8.83;100.00
30636;BME280;17400;52.392;9.750;2023-04-15T03:57:18;100216.31;;;8.86;100.00
30636;BME280;17400;52.392;9.750;2023-04-15T03:59:47;100215.09;;;8.88;100.00
30636;BME280;17400;52.392;9.750;2023-04-15T04:02:15;100212.56;;;8.80;100.00
30636;BME280;17400;52.392;9.750;2023-04-15T04:04:43;100218.34;;;8.77;100.00
30636;BME280;17400;52.392;9.750;2023-04-15T04:07:14;100219.97;;;8.71;100.00
30636;BME280;17400;52.392;9.750;2023-04-15T04:09:42;100219.56;;;8.74;100.00
30636;BME280;17400;52.392;9.750;2023-04-15T04:12:12;100216.63;;;8.69;100.00
30636;BME280;17400;52.392;9.750;2023-04-15T04:14:40;100222.25;;;8.74;100.00
30636;BME280;17400;52.392;9.750;2023-04-15T04:17:09;100214.41;;;8.79;100.00
30636;BME280;17400;52.392;9.750;2023-04-15T04:19:37;100222.94;;;8.83;100.00
30636;BME280;17400;52.392;9.750;2023-04-15T04:22:05;100219.59;;;8.81;100.00
30636;BME280;17400;52.392;9.750;2023-04-15T04:24:33;100217.09;;;8.79;100.00
30636;BME280;17400;52.392;9.750;2023-04-15T04:27:00;100218.56;;;8.82;100.00
30636;BME280;17400;52.392;9.750;2023-04-15T04:29:28;100219.63;;;8.88;100.00
30636;BME280;17400;52.392;9.750;2023-04-15T04:31:57;100215.31;;;8.87;100.00
30636;BME280;17400;52.392;9.750;2023-04-15T04:34:26;100219.22;;;8.84;100.00
30636;BME280;17400;52.392;9.750;2023-04-15T04:36:54;100222.53;;;8.86;100.00
30636;BME280;17400;52.392;9.750;2023-04-15T04:39:22;100225.84;;;8.81;100.00
30636;BME280;17400;52.392;9.750;2023-04-15T04:41:50;100222.13;;;8.82;100.00
30636;BME280;17400;52.392;9.750;2023-04-15T04:44:18;100223.97;;;8.82;100.00
30636;BME280;17400;52.392;9.750;2023-04-15T04:46:48;100217.09;;;8.79;100.00
30636;BME280;17400;52.392;9.750;2023-04-15T04:49:16;100220.06;;;8.84;100.00
30636;BME280;17400;52.392;9.750;2023-04-15T04:51:45;100225.44;;;8.84;100.00
30636;BME280;17400;52.392;9.750;2023-04-15T04:54:14;100216.72;;;8.82;100.00
30636;BME280;17400;52.392;9.750;2023-04-15T04:56:41;100221.47;;;8.80;100.00
30636;BME280;17400;52.392;9.750;2023-04-15T04:59:09;100219.44;;;8.82;100.00
30636;BME280;17400;52.392;9.750;2023-04-15T05:01:37;100210.25;;;8.77;100.00
30636;BME280;17400;52.392;9.750;2023-04-15T05:04:05;100221.22;;;8.75;100.00
30636;BME280;17400;52.392;9.750;2023-04-15T05:06:33;100213.91;;;8.69;100.00
30636;BME280;17400;52.392;9.750;2023-04-15T05:09:03;100226.78;;;8.67;100.00
30636;BME280;17400;52.392;9.750;2023-04-15T05:11:31;100232.81;;;8.69;100.00
30636;BME280;17400;52.392;9.750;2023-04-15T05:13:59;100232.44;;;8.72;100.00
30636;BME280;17400;52.392;9.750;2023-04-15T05:16:28;100224.72;;;8.69;100.00
30636;BME280;17400;52.392;9.750;2023-04-15T05:18:55;100230.97;;;8.70;100.00
30636;BME280;17400;52.392;9.750;2023-04-15T05:21:23;100234.69;;;8.69;100.00
30636;BME280;17400;52.392;9.750;2023-04-15T05:23:51;100231.97;;;8.69;100.00
30636;BME280;17400;52.392;9.750;2023-04-15T05:26:20;100228.63;;;8.66;100.00
30636;BME280;17400;52.392;9.750;2023-04-15T05:28:48;100237.13;;;8.63;100.00
30636;BME280;17400;52.392;9.750;2023-04-15T05:31:16;100238.56;;;8.59;100.00
30636;BME280;17400;52.392;9.750;2023-04-15T05:33:44;100232.97;;;8.61;100.00
30636;BME280;17400;52.392;9.750;2023-04-15T05:36:13;100235.47;;;8.62;100.00
30636;BME280;17400;52.392;9.750;2023-04-15T05:38:41;100230.06;;;8.62;100.00
30636;BME280;17400;52.392;9.750;2023-04-15T05:41:09;100225.25;;;8.58;100.00
30636;BME280;17400;52.392;9.750;2023-04-15T05:43:38;100226.53;;;8.62;100.00
30636;BME280;17400;52.392;9.750;2023-04-15T05:46:06;100230.91;;;8.63;100.00
30636;BME280;17400;52.392;9.750;2023-04-15T05:48:35;100232.34;;;8.59;100.00
30636;BME280;17400;52.392;9.750;2023-04-15T05:51:03;100231.19;;;8.46;100.00
30636;BME280;17400;52.392;9.750;2023-04-15T05:53:31;100230.91;;;8.41;100.00
30636;BME280;17400;52.392;9.750;2023-04-15T05:55:59;100228.16;;;8.34;100.00
30636;BME280;17400;52.392;9.750;2023-04-15T05:58:26;100227.53;;;8.32;100.00
30636;BME280;17400;52.392;9.750;2023-04-15T06:00:56;100222.34;;;8.31;100.00
30636;BME280;17400;52.392;9.750;2023-04-15T06:03:24;100221.97;;;8.41;100.00
30636;BME280;17400;52.392;9.750;2023-04-15T06:05:52;100223.94;;;8.47;100.00
30636;BME280;17400;52.392;9.750;2023-04-15T06:08:20;100225.34;;;8.43;100.00
30636;BME280;17400;52.392;9.750;2023-04-15T06:10:48;100222.94;;;8.33;100.00
30636;BME280;17400;52.392;9.750;2023-04-15T06:13:16;100225.41;;;8.28;100.00
30636;BME280;17400;52.392;9.750;2023-04-15T06:15:44;100222.34;;;8.31;100.00
30636;BME280;17400;52.392;9.750;2023-04-15T06:18:17;100228.19;;;8.41;100.00
30636;BME280;17400;52.392;9.750;2023-04-15T06:20:45;100222.28;;;8.46;100.00
30636;BME280;17400;52.392;9.750;2023-04-15T06:23:13;100223.47;;;8.43;100.00
30636;BME280;17400;52.392;9.750;2023-04-15T06:25:46;100220.09;;;8.41;100.00
30636;BME280;17400;52.392;9.750;2023-04-15T06:28:14;100210.94;;;8.36;100.00
30636;BME280;17400;52.392;9.750;2023-04-15T06:30:42;100220.09;;;8.41;100.00
30636;BME280;17400;52.392;9.750;2023-04-15T06:33:10;100227.13;;;8.36;100.00
30636;BME280;17400;52.392;9.750;2023-04-15T06:35:40;100220.25;;;8.33;100.00
30636;BME280;17400;52.392;9.750;2023-04-15T06:38:08;100226.09;;;8.37;100.00
30636;BME280;17400;52.392;9.750;2023-04-15T06:40:36;100219.50;;;8.39;100.00
30636;BME280;17400;52.392;9.750;2023-04-15T06:43:05;100221.44;;;8.45;100.00
30636;BME280;17400;52.392;9.750;2023-04-15T06:45:33;100228.13;;;8.49;100.00
30636;BME280;17400;52.392;9.750;2023-04-15T06:48:01;100223.59;;;8.35;100.00
30636;BME280;17400;52.392;9.750;2023-04-15T06:50:29;100232.06;;;8.32;100.00
30636;BME280;17400;52.392;9.750;2023-04-15T06:52:58;100228.16;;;8.34;100.00
30636;BME280;17400;52.392;9.750;2023-04-15T06:55:26;100230.53;;;8.23;100.00
30636;BME280;17400;52.392;9.750;2023-04-15T06:57:54;100234.97;;;8.30;100.00
30636;BME280;17400;52.392;9.750;2023-04-15T07:00:21;100234.50;;;8.27;100.00
30636;BME280;17400;52.392;9.750;2023-04-15T07:02:50;100233.50;;;8.28;100.00
30636;BME280;17400;52.392;9.750;2023-04-15T07:05:18;100233.28;;;8.29;100.00
30636;BME280;17400;52.392;9.750;2023-04-15T07:07:47;100236.84;;;8.30;100.00
30636;BME280;17400;52.392;9.750;2023-04-15T07:10:17;100239.91;;;8.27;100.00
30636;BME280;17400;52.392;9.750;2023-04-15T07:12:45;100237.34;;;8.18;100.00
30636;BME280;17400;52.392;9.750;2023-04-15T07:15:12;100229.44;;;8.17;100.00
30636;BME280;17400;52.392;9.750;2023-04-15T07:17:40;100232.75;;;8.12;100.00
30636;BME280;17400;52.392;9.750;2023-04-15T07:20:09;100242.13;;;8.16;100.00
30636;BME280;17400;52.392;9.750;2023-04-15T07:22:38;100254.63;;;8.24;100.00
30636;BME280;17400;52.392;9.750;2023-04-15T07:25:07;100257.66;;;8.36;100.00
30636;BME280;17400;52.392;9.750;2023-04-15T07:27:36;100259.34;;;8.44;100.00
30636;BME280;17400;52.392;9.750;2023-04-15T07:30:06;100259.34;;;8.44;100.00
30636;BME280;17400;52.392;9.750;2023-04-15T07:32:35;100270.28;;;8.36;100.00
30636;BME280;17400;52.392;9.750;2023-04-15T07:35:03;100252.25;;;8.36;100.00
30636;BME280;17400;52.392;9.750;2023-04-15T07:37:31;100260.19;;;8.44;100.00
30636;BME280;17400;52.392;9.750;2023-04-15T07:39:59;100257.69;;;8.43;100.00
30636;BME280;17400;52.392;9.750;2023-04-15T07:42:27;100261.22;;;8.43;100.00
30636;BME280;17400;52.392;9.750;2023-04-15T07:44:57;100256.59;;;8.37;100.00
30636;BME280;17400;52.392;9.750;2023-04-15T07:47:24;100263.91;;;8.43;100.00
30636;BME280;17400;52.392;9.750;2023-04-15T07:49:53;100252.56;;;8.48;100.00
30636;BME280;17400;52.392;9.750;2023-04-15T07:52:21;100261.75;;;8.54;100.00
30636;BME280;17400;52.392;9.750;2023-04-15T07:54:49;100264.97;;;8.64;100.00
30636;BME280;17400;52.392;9.750;2023-04-15T07:57:17;100265.19;;;8.69;100.00
30636;BME280;17400;52.392;9.750;2023-04-15T07:59:46;100264.41;;;8.75;100.00
30636;BME280;17400;52.392;9.750;2023-04-15T08:02:18;100269.50;;;8.85;100.00
30636;BME280;17400;52.392;9.750;2023-04-15T08:04:49;100279.44;;;8.84;100.00
30636;BME280;17400;52.392;9.750;2023-04-15T08:07:18;100284.22;;;8.82;100.00
30636;BME280;17400;52.392;9.750;2023-04-15T08:09:45;100282.56;;;8.88;100.00
30636;BME280;17400;52.392;9.750;2023-04-15T08:12:13;100279.03;;;8.88;100.00
30636;BME280;17400;52.392;9.750;2023-04-15T08:14:41;100290.22;;;8.84;100.00
30636;BME280;17400;52.392;9.750;2023-04-15T08:17:09;100293.91;;;8.77;100.00
30636;BME280;17400;52.392;9.750;2023-04-15T08:19:40;100291.41;;;8.75;100.00
30636;BME280;17400;52.392;9.750;2023-04-15T08:22:09;100286.84;;;8.76;100.00
30636;BME280;17400;52.392;9.750;2023-04-15T08:24:43;100287.28;;;8.79;100.00
30636;BME280;17400;52.392;9.750;2023-04-15T08:27:14;100283.34;;;8.82;100.00
30636;BME280;17400;52.392;9.750;2023-04-15T08:29:42;100282.69;;;8.73;100.00
30636;BME280;17400;52.392;9.750;2023-04-15T08:32:11;100281.38;;;8.69;100.00
30636;BME280;17400;52.392;9.750;2023-04-15T08:34:38;100282.03;;;8.71;100.00
30636;BME280;17400;52.392;9.750;2023-04-15T08:37:10;100292.25;;;8.76;100.00
30636;BME280;17400;52.392;9.750;2023-04-15T08:39:38;100285.81;;;8.77;100.00
30636;BME280;17400;52.392;9.750;2023-04-15T08:42:10;100287.88;;;8.75;100.00
30636;BME280;17400;52.392;9.750;2023-04-15T08:44:39;100292.81;;;8.71;100.00
30636;BME280;17400;52.392;9.750;2023-04-15T08:47:12;100292.44;;;8.74;100.00
30636;BME280;17400;52.392;9.750;2023-04-15T08:49:41;100297.25;;;8.79;100.00
30636;BME280;17400;52.392;9.750;2023-04-15T08:52:11;100292.69;;;8.79;100.00
30636;BME280;17400;52.392;9.750;2023-04-15T08:54:38;100294.34;;;8.80;100.00
30636;BME280;17400;52.392;9.750;2023-04-15T08:57:07;100294.75;;;8.77;100.00
30636;BME280;17400;52.392;9.750;2023-04-15T08:59:35;100302.84;;;8.77;100.00
30636;BME280;17400;52.392;9.750;2023-04-15T09:02:03;100298.53;;;8.83;100.00
30636;BME280;17400;52.392;9.750;2023-04-15T09:04:31;100301.03;;;8.84;100.00
30636;BME280;17400;52.392;9.750;2023-04-15T09:06:59;100293.91;;;8.77;100.00
30636;BME280;17400;52.392;9.750;2023-04-15T09:09:29;100285.22;;;8.81;100.00
30636;BME280;17400;52.392;9.750;2023-04-15T09:11:56;100285.84;;;8.83;100.00
30636;BME280;17400;52.392;9.750;2023-04-15T09:14:24;100290.22;;;8.84;100.00
30636;BME280;17400;52.392;9.750;2023-04-15T09:16:55;100293.56;;;8.87;100.00
30636;BME280;17400;52.392;9.750;2023-04-15T09:19:24;100299.78;;;8.87;100.00
30636;BME280;17400;52.392;9.750;2023-04-15T09:21:53;100302.28;;;8.89;100.00
30636;BME280;17400;52.392;9.750;2023-04-15T09:24:27;100304.75;;;8.83;100.00
30636;BME280;17400;52.392;9.750;2023-04-15T09:27:01;100306.41;;;8.84;100.00
30636;BME280;17400;52.392;9.750;2023-04-15T09:29:32;100316.41;;;8.84;100.00
30636;BME280;17400;52.392;9.750;2023-04-15T09:32:10;100318.06;;;8.85;100.00
30636;BME280;17400;52.392;9.750;2023-04-15T09:34:39;100324.28;;;8.86;100.00
30636;BME280;17400;52.392;9.750;2023-04-15T09:37:07;100321.59;;;8.86;100.00
30636;BME280;17400;52.392;9.750;2023-04-15T09:39:47;100328.53;;;8.95;100.00
30636;BME280;17400;52.392;9.750;2023-04-15T09:42:17;100333.25;;;8.93;100.00
30636;BME280;17400;52.392;9.750;2023-04-15T09:44:51;100338.00;;;8.84;100.00
30636;BME280;17400;52.392;9.750;2023-04-15T09:47:29;100339.59;;;8.78;100.00
30636;BME280;17400;52.392;9.750;2023-04-15T09:49:58;100330.47;;;8.79;100.00
30636;BME280;17400;52.392;9.750;2023-04-15T09:52:28;100344.22;;;8.84;100.00
30636;BME280;17400;52.392;9.750;2023-04-15T09:54:57;100330.31;;;8.88;100.00
30636;BME280;17400;52.392;9.750;2023-04-15T09:57:34;100343.44;;;8.91;100.00
30636;BME280;17400;52.392;9.750;2023-04-15T10:00:03;100345.75;;;8.94;100.00
30636;BME280;17400;52.392;9.750;2023-04-15T10:02:32;100346.75;;;8.93;100.00
30636;BME280;17400;52.392;9.750;2023-04-15T10:05:03;100342.84;;;8.95;100.00
30636;BME280;17400;52.392;9.750;2023-04-15T10:07:31;100343.44;;;8.91;100.00
30636;BME280;17400;52.392;9.750;2023-04-15T10:10:02;100346.41;;;8.96;100.00
30636;BME280;17400;52.392;9.750;2023-04-15T10:12:36;100350.13;;;8.95;100.00
30636;BME280;17400;52.392;9.750;2023-04-15T10:15:05;100353.63;;;8.95;100.00
30636;BME280;17400;52.392;9.750;2023-04-15T10:17:33;100348.50;;;9.00;100.00
30636;BME280;17400;52.392;9.750;2023-04-15T10:20:04;100346.66;;;9.01;100.00
30636;BME280;17400;52.392;9.750;2023-04-15T10:22:33;100342.47;;;8.98;100.00
30636;BME280;17400;52.392;9.750;2023-04-15T10:25:02;100354.09;;;8.99;100.00
30636;BME280;17400;52.392;9.750;2023-04-15T10:27:32;100349.34;;;9.01;100.00
30636;BME280;17400;52.392;9.750;2023-04-15T10:30:04;100353.94;;;9.07;100.00
30636;BME280;17400;52.392;9.750;2023-04-15T10:32:32;100360.63;;;9.11;100.00
30636;BME280;17400;52.392;9.750;2023-04-15T10:35:01;100365.25;;;9.17;100.00
30636;BME280;17400;52.392;9.750;2023-04-15T10:37:33;100363.56;;;9.16;100.00
30636;BME280;17400;52.392;9.750;2023-04-15T10:40:24;100360.09;;;9.23;100.00
30636;BME280;17400;52.392;9.750;2023-04-15T10:42:54;100356.97;;;9.26;100.00
30636;BME280;17400;52.392;9.750;2023-04-15T10:45:27;100349.94;;;9.25;100.00
30636;BME280;17400;52.392;9.750;2023-04-15T10:47:56;100349.94;;;9.25;100.00
30636;BME280;17400;52.392;9.750;2023-04-15T10:50:30;100351.78;;;9.24;100.00
30636;BME280;17400;52.392;9.750;2023-04-15T10:53:01;100351.56;;;9.26;100.00
30636;BME280;17400;52.392;9.750;2023-04-15T10:55:31;100354.88;;;9.21;100.00
30636;BME280;17400;52.392;9.750;2023-04-15T10:58:01;100356.13;;;9.19;100.00
30636;BME280;17400;52.392;9.750;2023-04-15T11:00:31;100354.44;;;9.17;100.00
30636;BME280;17400;52.392;9.750;2023-04-15T11:03:05;100350.72;;;9.19;100.00
30636;BME280;17400;52.392;9.750;2023-04-15T11:05:50;100348.69;;;9.27;100.00
30636;BME280;17400;52.392;9.750;2023-04-15T11:08:19;100352.72;;;9.38;100.00
30636;BME280;17400;52.392;9.750;2023-04-15T11:10:51;100356.50;;;9.44;100.00
30636;BME280;17400;52.392;9.750;2023-04-15T11:13:28;100359.63;;;9.47;100.00
30636;BME280;17400;52.392;9.750;2023-04-15T11:15:59;100362.72;;;9.44;100.00
30636;BME280;17400;52.392;9.750;2023-04-15T11:18:32;100369.78;;;9.45;100.00
30636;BME280;17400;52.392;9.750;2023-04-15T11:21:05;100369.22;;;9.50;100.00
30636;BME280;17400;52.392;9.750;2023-04-15T11:23:36;100375.44;;;9.50;100.00
30636;BME280;17400;52.392;9.750;2023-04-15T11:26:06;100373.72;;;9.43;100.00
30636;BME280;17400;52.392;9.750;2023-04-15T11:28:38;100368.28;;;9.36;100.00
30636;BME280;17400;52.392;9.750;2023-04-15T11:31:09;100377.41;;;9.35;100.00
30636;BME280;17400;52.392;9.750;2023-04-15T11:33:44;100382.59;;;9.37;100.00
30636;BME280;17400;52.392;9.750;2023-04-15T11:36:12;100380.75;;;9.37;100.00
30636;BME280;17400;52.392;9.750;2023-04-15T11:38:45;100386.38;;;9.36;100.00
30636;BME280;17400;52.392;9.750;2023-04-15T11:41:20;100391.13;;;9.33;100.00
30636;BME280;17400;52.392;9.750;2023-04-15T11:43:48;100397.38;;;9.34;100.00
30636;BME280;17400;52.392;9.750;2023-04-15T11:46:18;100398.44;;;9.40;100.00
30636;BME280;17400;52.392;9.750;2023-04-15T11:48:45;100398.81;;;9.37;100.00
30636;BME280;17400;52.392;9.750;2023-04-15T11:51:13;100396.94;;;9.30;100.00
30636;BME280;17400;52.392;9.750;2023-04-15T11:53:42;100396.53;;;9.33;100.00
30636;BME280;17400;52.392;9.750;2023-04-15T11:56:17;100406.91;;;9.37;100.00
30636;BME280;17400;52.392;9.750;2023-04-15T11:58:45;100414.81;;;9.31;100.00
30636;BME280;17400;52.392;9.750;2023-04-15T12:01:13;100410.22;;;9.32;100.00
30636;BME280;17400;52.392;9.750;2023-04-15T12:03:44;100408.19;;;9.34;100.00
30636;BME280;17400;52.392;9.750;2023-04-15T12:06:14;100411.50;;;9.36;100.00
30636;BME280;17400;52.392;9.750;2023-04-15T12:08:54;100417.56;;;9.38;100.00
30636;BME280;17400;52.392;9.750;2023-04-15T12:11:28;100421.91;;;9.39;100.00
30636;BME280;17400;52.392;9.750;2023-04-15T12:13:57;100424.84;;;9.44;100.00
30636;BME280;17400;52.392;9.750;2023-04-15T12:16:26;100433.22;;;9.49;100.00
30636;BME280;17400;52.392;9.750;2023-04-15T12:18:57;100436.38;;;9.53;100.00
30636;BME280;17400;52.392;9.750;2023-04-15T12:21:31;100432.44;;;9.56;100.00
30636;BME280;17400;52.392;9.750;2023-04-15T12:24:01;100439.88;;;9.54;100.00
30636;BME280;17400;52.392;9.750;2023-04-15T12:26:34;100437.84;;;9.56;100.00
30636;BME280;17400;52.392;9.750;2023-04-15T12:29:04;100444.72;;;9.58;100.00
30636;BME280;17400;52.392;9.750;2023-04-15T12:31:33;100441.81;;;9.60;100.00
30636;BME280;17400;52.392;9.750;2023-04-15T12:34:03;100442.84;;;9.59;100.00
30636;BME280;17400;52.392;9.750;2023-04-15T12:36:34;100452.88;;;9.65;100.00
30636;BME280;17400;52.392;9.750;2023-04-15T12:39:03;100447.25;;;9.66;100.00
30636;BME280;17400;52.392;9.750;2023-04-15T12:41:32;100449.97;;;9.66;100.00
30636;BME280;17400;52.392;9.750;2023-04-15T12:43:59;100449.13;;;9.66;100.00
30636;BME280;17400;52.392;9.750;2023-04-15T12:46:28;100459.34;;;9.71;100.00
30636;BME280;17400;52.392;9.750;2023-04-15T12:48:56;100458.97;;;9.74;100.00
30636;BME280;17400;52.392;9.750;2023-04-15T12:51:25;100460.84;;;9.80;100.00
30636;BME280;17400;52.392;9.750;2023-04-15T12:53:54;100463.75;;;9.78;100.00
30636;BME280;17400;52.392;9.750;2023-04-15T12:56:21;100469.38;;;9.77;100.00
30636;BME280;17400;52.392;9.750;2023-04-15T12:58:49;100476.25;;;9.79;100.00
30636;BME280;17400;52.392;9.750;2023-04-15T13:01:18;100482.94;;;9.83;100.00